Time;durP1;ratioP1;P1;durP2;ratioP2;P2;SDS_P1;SDS_P2;PMS_P1;PMS_P2;Temp;Humidity;BMP_temperature;BMP_pressure;BME280_temperature;BME280_humidity;BME280_pressure;Samples;Min_cycle;Max_cycle;Signal;HPM_P1;HPM_P2
2021/09/04 00:01:46;;;;;;;6.33;2.40;;;;;;;14.36;100.00;18367.19;5021603;28;20036;-68
2021/09/04 00:04:12;;;;;;;12.67;2.80;;;;;;;14.42;100.00;14755.06;5020977;28;20128;-69
2021/09/04 00:06:38;;;;;;;6.97;2.70;;;;;;;14.42;100.00;13113.72;5021541;28;20470;-68
2021/09/04 00:09:04;;;;;;;6.13;2.30;;;;;;;14.37;100.00;15738.91;5021287;28;20328;-68
2021/09/04 00:11:31;;;;;;;7.63;2.17;;;;;;;14.42;100.00;20342.34;5021701;28;20029;-69
2021/09/04 00:13:57;;;;;;;7.93;2.40;;;;;;;14.38;100.00;14425.66;5021470;28;20025;-69
2021/09/04 00:16:23;;;;;;;6.93;2.40;;;;;;;14.30;100.00;17707.72;5021866;28;20286;-68
2021/09/04 00:18:48;;;;;;;7.20;2.40;;;;;;;14.27;100.00;-5342.25;5021447;28;20461;-69
2021/09/04 00:21:14;;;;;;;7.53;2.43;;;;;;;14.32;100.00;14752.34;5021723;28;20565;-69
2021/09/04 00:23:39;;;;;;;7.27;2.77;;;;;;;14.31;100.00;17051.09;5021165;28;20021;-69
2021/09/04 00:26:05;;;;;;;7.60;2.43;;;;;;;14.30;100.00;7726.00;5021335;28;20112;-69
2021/09/04 00:28:30;;;;;;;6.67;2.40;;;;;;;14.27;100.00;-5143.41;5021896;28;20041;-67
2021/09/04 00:30:56;;;;;;;8.27;2.30;;;;;;;14.30;100.00;-12777.88;5020977;28;20542;-68
2021/09/04 00:33:21;;;;;;;8.30;2.30;;;;;;;14.31;100.00;-19538.75;5020934;28;20103;-68
2021/09/04 00:35:47;;;;;;;6.80;2.23;;;;;;;14.29;100.00;-10187.50;5020881;28;20041;-68
2021/09/04 00:38:12;;;;;;;6.07;2.30;;;;;;;14.32;100.00;-2342.91;5020581;28;20056;-68
2021/09/04 00:40:38;;;;;;;7.23;2.30;;;;;;;14.28;100.00;-4131.16;5021097;28;20033;-68
2021/09/04 00:43:03;;;;;;;8.53;2.60;;;;;;;14.28;100.00;-7345.41;5021177;28;20382;-69
2021/09/04 00:45:29;;;;;;;9.17;2.40;;;;;;;14.29;100.00;-15559.09;5020426;28;20068;-68
2021/09/04 00:48:05;;;;;;;9.73;2.20;;;;;;;14.27;100.00;-10879.50;5020990;28;20044;-68
2021/09/04 00:50:32;;;;;;;7.03;2.80;;;;;;;14.30;100.00;-8226.91;5020824;28;20044;-69
2021/09/04 00:52:58;;;;;;;10.07;2.97;;;;;;;14.31;100.00;-18145.56;5020548;28;20026;-69
2021/09/04 00:55:25;;;;;;;6.50;2.67;;;;;;;14.31;100.00;-15617.94;5020582;28;20297;-69
2021/09/04 00:57:51;;;;;;;6.27;2.73;;;;;;;14.31;100.00;-10159.72;5020693;28;20033;-69
2021/09/04 01:00:17;;;;;;;8.30;3.00;;;;;;;14.34;100.00;-18379.91;5020042;28;20269;-69
2021/09/04 01:02:43;;;;;;;9.43;2.83;;;;;;;14.32;100.00;-16215.41;5019228;28;20033;-69
2021/09/04 01:05:09;;;;;;;8.20;3.60;;;;;;;14.33;100.00;-19539.28;5019898;28;20096;-69
2021/09/04 01:07:36;;;;;;;10.07;3.33;;;;;;;14.30;100.00;-15943.00;5020529;28;20037;-69
2021/09/04 01:10:03;;;;;;;7.30;3.03;;;;;;;14.28;100.00;-3927.16;5020063;28;20052;-69
2021/09/04 01:12:28;;;;;;;7.70;3.47;;;;;;;14.25;100.00;-10108.09;5020148;28;20036;-69
2021/09/04 01:14:54;;;;;;;9.37;3.80;;;;;;;14.26;100.00;-7059.91;5019968;28;20029;-69
2021/09/04 01:17:20;;;;;;;12.03;4.07;;;;;;;14.24;100.00;1008.63;5020206;28;20192;-69
2021/09/04 01:19:46;;;;;;;8.30;3.33;;;;;;;14.27;100.00;-1521.34;5019914;28;20440;-69
2021/09/04 01:22:11;;;;;;;11.53;3.20;;;;;;;14.25;100.00;-449.34;5020520;28;20029;-69
2021/09/04 01:24:38;;;;;;;10.13;3.57;;;;;;;14.24;100.00;7763.38;5020241;28;20298;-69
2021/09/04 01:27:04;;;;;;;9.57;4.00;;;;;;;14.26;100.00;-38.25;5020481;28;20368;-69
2021/09/04 01:29:30;;;;;;;10.53;3.30;;;;;;;14.27;100.00;-9161.25;5020000;28;20033;-69
2021/09/04 01:31:56;;;;;;;9.10;3.63;;;;;;;14.31;100.00;-19057.06;5020337;28;20113;-69
2021/09/04 01:34:21;;;;;;;8.17;3.40;;;;;;;14.28;100.00;-17822.47;5019955;28;20034;-69
2021/09/04 01:36:47;;;;;;;8.17;3.80;;;;;;;14.26;100.00;-17227.63;5020379;28;20025;-68
2021/09/04 01:39:12;;;;;;;9.27;3.27;;;;;;;14.30;100.00;-2753.75;5020093;28;20120;-69
2021/09/04 01:41:40;;;;;;;9.90;3.90;;;;;;;14.30;100.00;-265.22;5020249;28;20148;-68
2021/09/04 01:44:06;;;;;;;6.70;2.70;;;;;;;14.30;100.00;-13617.13;5020097;28;20116;-68
2021/09/04 01:46:34;;;;;;;11.87;3.47;;;;;;;14.28;100.00;12453.81;5020245;28;20040;-68
2021/09/04 01:48:59;;;;;;;8.47;3.23;;;;;;;14.24;100.00;9058.63;5019965;28;20060;-69
2021/09/04 01:51:25;;;;;;;7.33;3.43;;;;;;;14.19;100.00;592.03;5020041;28;20029;-69
2021/09/04 01:53:51;;;;;;;6.10;2.70;;;;;;;14.21;100.00;-6364.06;5020501;28;20117;-69
2021/09/04 01:56:16;;;;;;;11.90;2.77;;;;;;;14.21;100.00;-13567.34;5020392;28;20563;-69
2021/09/04 01:58:45;;;;;;;8.27;2.70;;;;;;;14.25;100.00;-16666.03;5018966;28;20025;-69
2021/09/04 02:01:11;;;;;;;12.77;2.90;;;;;;;14.28;100.00;-19538.09;5019535;28;20510;-69
2021/09/04 02:03:36;;;;;;;9.37;2.83;;;;;;;14.36;100.00;-19540.06;5019433;28;20073;-69
2021/09/04 02:06:05;;;;;;;9.40;2.83;;;;;;;14.28;100.00;-19538.09;5019651;28;20065;-69
2021/09/04 02:08:31;;;;;;;9.17;2.87;;;;;;;14.28;100.00;-13993.09;5020500;28;20029;-69
2021/09/04 02:10:57;;;;;;;9.97;2.60;;;;;;;14.24;100.00;-16518.50;5020489;28;20616;-68
2021/09/04 02:13:23;;;;;;;6.73;2.60;;;;;;;14.25;100.00;-19537.31;5019666;28;20030;-68
2021/09/04 02:15:49;;;;;;;6.63;2.17;;;;;;;14.26;100.00;-15655.06;5019490;28;20654;-68
2021/09/04 02:18:14;;;;;;;6.47;2.53;;;;;;;14.24;100.00;-6055.81;5019754;28;20676;-68
2021/09/04 02:20:40;;;;;;;11.07;2.83;;;;;;;14.28;100.00;-3062.47;5019709;28;20360;-68
2021/09/04 02:23:06;;;;;;;4.73;2.47;;;;;;;14.25;100.00;-19537.16;5019532;28;20025;-68
2021/09/04 02:25:31;;;;;;;6.63;2.43;;;;;;;14.27;100.00;-19537.69;5019192;28;20079;-68
2021/09/04 02:27:57;;;;;;;7.60;2.10;;;;;;;14.24;100.00;-19537.03;5019483;28;20045;-68
2021/09/04 02:30:23;;;;;;;4.70;2.07;;;;;;;14.24;100.00;-19296.56;5019518;28;20033;-68
2021/09/04 02:32:48;;;;;;;5.37;2.37;;;;;;;14.20;100.00;-7454.44;5019424;28;20033;-68
2021/09/04 02:35:14;;;;;;;9.23;2.60;;;;;;;14.24;100.00;-13468.66;5019235;28;20291;-68
2021/09/04 02:37:39;;;;;;;7.10;2.20;;;;;;;14.24;100.00;-18072.91;5019699;28;20474;-68
2021/09/04 02:40:06;;;;;;;5.27;2.13;;;;;;;14.21;100.00;-8755.91;5019129;28;20529;-68
2021/09/04 02:42:32;;;;;;;5.87;2.47;;;;;;;14.19;100.00;-3542.03;5019519;28;20116;-68
2021/09/04 02:44:58;;;;;;;5.33;2.13;;;;;;;14.23;100.00;-9530.09;5019138;28;20522;-68
2021/09/04 02:47:23;;;;;;;6.80;2.37;;;;;;;14.23;100.00;-8692.38;5019239;28;20037;-68
2021/09/04 02:49:49;;;;;;;8.97;2.23;;;;;;;14.22;100.00;-10741.47;5019070;28;20040;-68
2021/09/04 02:52:18;;;;;;;5.93;2.00;;;;;;;14.22;100.00;-18808.56;5019178;28;20036;-68
2021/09/04 02:54:43;;;;;;;5.67;1.90;;;;;;;14.23;100.00;-13999.88;5019063;28;20462;-68
2021/09/04 02:57:09;;;;;;;9.50;2.27;;;;;;;14.20;100.00;-15084.75;5019548;28;20394;-68
2021/09/04 02:59:35;;;;;;;5.33;1.90;;;;;;;14.21;100.00;-13737.75;5018834;28;20113;-68
2021/09/04 03:02:00;;;;;;;8.10;2.80;;;;;;;14.20;100.00;-12883.16;5019358;28;20038;-68
2021/09/04 03:04:26;;;;;;;6.77;2.10;;;;;;;14.20;100.00;-9835.22;5018703;28;20131;-68
2021/09/04 03:06:52;;;;;;;6.03;2.00;;;;;;;14.20;100.00;-3776.66;5019478;28;20068;-68
2021/09/04 03:09:17;;;;;;;6.43;2.23;;;;;;;14.17;100.00;-8811.53;5020403;28;20103;-68
2021/09/04 03:11:43;;;;;;;7.03;2.13;;;;;;;14.18;100.00;-19535.34;5023011;28;20279;-68
2021/09/04 03:14:08;;;;;;;4.87;1.90;;;;;;;14.18;100.00;-19335.50;5022441;28;20487;-68
2021/09/04 03:16:34;;;;;;;7.07;1.93;;;;;;;14.17;100.00;-6496.34;5022818;28;20226;-68
2021/09/04 03:19:00;;;;;;;5.33;1.77;;;;;;;14.15;100.00;-19534.69;5022199;28;20156;-68
2021/09/04 03:21:25;;;;;;;4.23;2.03;;;;;;;14.17;100.00;-19535.06;5022733;28;20052;-67
2021/09/04 03:23:51;;;;;;;8.80;1.90;;;;;;;14.16;100.00;-19534.81;5022399;28;20101;-67
2021/09/04 03:26:16;;;;;;;7.47;2.00;;;;;;;14.17;100.00;-19535.06;5022542;28;20294;-67
2021/09/04 03:28:42;;;;;;;6.27;1.77;;;;;;;14.12;100.00;-19533.75;5022230;28;20037;-67
2021/09/04 03:31:07;;;;;;;5.13;1.80;;;;;;;14.15;100.00;-19534.56;5022341;28;20045;-67
2021/09/04 03:33:33;;;;;;;4.10;1.83;;;;;;;14.15;100.00;-19534.56;5022322;28;20021;-67
2021/09/04 03:35:58;;;;;;;5.40;2.10;;;;;;;14.16;100.00;-19534.94;5021967;28;20044;-67
2021/09/04 03:38:24;;;;;;;5.40;1.87;;;;;;;14.17;100.00;-19535.06;5022312;28;20029;-67
2021/09/04 03:40:49;;;;;;;6.03;1.80;;;;;;;14.17;100.00;-19535.19;5021868;28;20025;-67
2021/09/04 03:43:15;;;;;;;7.13;2.43;;;;;;;14.14;100.00;-19534.41;5022271;28;20467;-67
2021/09/04 03:45:40;;;;;;;7.33;2.30;;;;;;;14.13;100.00;-19534.16;5022038;28;20037;-67
2021/09/04 03:48:06;;;;;;;8.87;2.30;;;;;;;14.14;100.00;-19534.28;5022194;28;20040;-67
2021/09/04 03:50:32;;;;;;;5.60;2.20;;;;;;;14.12;100.00;-19533.91;5022043;28;20033;-67
2021/09/04 03:52:57;;;;;;;6.50;2.57;;;;;;;14.15;100.00;-19534.56;5021949;28;20486;-67
2021/09/04 03:55:23;;;;;;;12.23;2.23;;;;;;;14.16;100.00;-19534.81;5021650;28;20562;-67
2021/09/04 03:57:48;;;;;;;5.77;2.30;;;;;;;14.16;100.00;-19534.81;5022165;28;20064;-67
2021/09/04 04:00:14;;;;;;;6.50;2.50;;;;;;;14.16;100.00;-19534.81;5021546;28;20175;-68
2021/09/04 04:02:40;;;;;;;5.07;2.30;;;;;;;14.16;100.00;-19534.81;5021888;28;20414;-67
2021/09/04 04:05:06;;;;;;;4.97;2.43;;;;;;;14.14;100.00;-19534.28;5021173;28;20045;-67
2021/09/04 04:07:32;;;;;;;7.73;2.63;;;;;;;14.13;100.00;-19534.03;5021684;28;20116;-67
2021/09/04 04:09:58;;;;;;;8.43;2.60;;;;;;;14.14;100.00;-19534.41;5021516;28;20505;-67
2021/09/04 04:12:23;;;;;;;7.80;2.80;;;;;;;14.15;100.00;-19534.56;5021737;28;20017;-67
2021/09/04 04:14:48;;;;;;;9.20;2.60;;;;;;;14.13;100.00;-19534.03;5021392;28;20029;-67
2021/09/04 04:17:14;;;;;;;7.77;2.63;;;;;;;14.10;100.00;-19533.38;5021528;28;20029;-67
2021/09/04 04:19:39;;;;;;;8.00;3.30;;;;;;;14.12;100.00;-19533.75;5021476;28;20228;-67
2021/09/04 04:22:05;;;;;;;9.53;2.90;;;;;;;14.10;100.00;-19533.38;5020781;28;20410;-67
2021/09/04 04:24:30;;;;;;;10.07;3.63;;;;;;;14.11;100.00;-19533.50;5021160;28;20113;-67
2021/09/04 04:26:56;;;;;;;7.70;3.27;;;;;;;14.17;100.00;-19535.06;5021290;28;20076;-67
2021/09/04 04:29:22;;;;;;;9.73;3.00;;;;;;;14.11;100.00;-19533.50;5021045;28;20061;-68
2021/09/04 04:31:47;;;;;;;9.63;3.33;;;;;;;14.03;100.00;613.91;5021287;28;20236;-67
2021/09/04 04:34:13;;;;;;;10.87;3.20;;;;;;;14.04;100.00;-12163.84;5020748;28;20088;-67
2021/09/04 04:36:39;;;;;;;10.20;3.30;;;;;;;14.05;100.00;-133.84;5021156;28;20400;-68
2021/09/04 04:39:04;;;;;;;9.67;3.33;;;;;;;14.05;100.00;-7150.44;5020879;28;20028;-67
2021/09/04 04:41:30;;;;;;;9.23;3.00;;;;;;;14.06;100.00;-12540.47;5021030;28;20075;-67
2021/09/04 04:43:55;;;;;;;10.33;3.70;;;;;;;14.11;100.00;-17983.41;5021152;28;20026;-68
2021/09/04 04:46:21;;;;;;;9.47;3.63;;;;;;;14.11;100.00;-9411.78;5021098;28;20025;-67
2021/09/04 04:48:46;;;;;;;10.90;3.23;;;;;;;14.12;100.00;-11874.94;5020649;28;20033;-67
2021/09/04 04:51:12;;;;;;;8.83;3.73;;;;;;;14.13;100.00;-19534.16;5020597;28;20262;-67
2021/09/04 04:53:37;;;;;;;8.30;3.30;;;;;;;14.15;100.00;-19534.56;5020567;28;20033;-67
2021/09/04 04:56:03;;;;;;;11.93;5.00;;;;;;;14.16;100.00;-19534.81;5020321;28;20044;-67
2021/09/04 04:58:29;;;;;;;8.60;3.67;;;;;;;14.17;100.00;-19535.06;5020878;28;20278;-67
2021/09/04 05:00:55;;;;;;;9.53;3.13;;;;;;;14.10;100.00;-10427.09;5020551;28;20044;-67
2021/09/04 05:03:21;;;;;;;7.73;3.70;;;;;;;14.15;100.00;-3256.41;5020475;28;20694;-67
2021/09/04 05:05:46;;;;;;;10.53;3.50;;;;;;;14.16;100.00;-8276.75;5020264;28;20485;-67
2021/09/04 05:08:12;;;;;;;9.90;2.93;;;;;;;14.20;100.00;-3842.94;5020767;28;20072;-67
2021/09/04 05:10:38;;;;;;;11.20;3.17;;;;;;;14.24;100.00;-227.28;5020301;28;20037;-67
2021/09/04 05:13:03;;;;;;;8.30;3.33;;;;;;;14.23;100.00;10364.28;5020438;28;20265;-68
2021/09/04 05:15:29;;;;;;;9.43;3.37;;;;;;;14.25;100.00;-3021.69;5019908;28;20111;-68
2021/09/04 05:17:55;;;;;;;7.37;2.70;;;;;;;14.30;100.00;-18104.72;5020246;28;20411;-68
2021/09/04 05:20:20;;;;;;;6.97;3.07;;;;;;;14.37;100.00;-19540.31;5020070;28;20108;-67
2021/09/04 05:22:47;;;;;;;6.70;2.80;;;;;;;14.38;100.00;-19540.56;5020427;28;20040;-68
2021/09/04 05:25:14;;;;;;;8.47;2.73;;;;;;;14.44;100.00;-19542.03;5020115;28;20029;-68
2021/09/04 05:27:40;;;;;;;9.27;2.90;;;;;;;14.49;100.00;-19543.34;5019878;28;20052;-68
2021/09/04 05:30:06;;;;;;;5.97;2.73;;;;;;;14.50;100.00;-19543.59;5020016;28;20030;-68
2021/09/04 05:32:32;;;;;;;6.50;2.47;;;;;;;14.54;100.00;-19544.78;5020082;28;20474;-67
2021/09/04 05:34:59;;;;;;;9.43;3.17;;;;;;;14.58;100.00;-19545.81;5019715;28;20556;-68
2021/09/04 05:37:26;;;;;;;8.63;2.70;;;;;;;14.62;100.00;-19546.88;5019887;28;20083;-67
2021/09/04 05:39:52;;;;;;;6.63;2.57;;;;;;;14.64;100.00;-19547.25;5019956;28;20040;-68
2021/09/04 05:42:18;;;;;;;5.67;2.60;;;;;;;14.65;100.00;-19547.66;5019964;28;20253;-68
2021/09/04 05:44:43;;;;;;;7.47;2.93;;;;;;;14.72;100.00;-19549.22;5019626;28;20104;-67
2021/09/04 05:47:09;;;;;;;7.93;2.70;;;;;;;14.73;100.00;-19549.50;5020050;28;20033;-67
2021/09/04 05:49:34;;;;;;;6.27;2.27;;;;;;;14.75;100.00;-19550.00;5019710;28;20044;-68
2021/09/04 05:52:00;;;;;;;7.47;2.60;;;;;;;14.73;100.00;-19549.63;5020005;28;20029;-68
2021/09/04 05:54:26;;;;;;;6.20;2.50;;;;;;;14.70;100.00;-19548.69;5019540;28;20394;-68
2021/09/04 05:56:54;;;;;;;7.90;2.80;;;;;;;14.84;100.00;-19552.38;5020211;28;20467;-67
2021/09/04 05:59:23;;;;;;;7.17;2.27;;;;;;;14.91;100.00;-19554.19;5019423;28;20090;-68
2021/09/04 06:01:49;;;;;;;5.83;2.43;;;;;;;14.93;100.00;-19554.72;5019285;28;20021;-68
2021/09/04 06:04:14;;;;;;;6.70;2.33;;;;;;;15.06;100.00;-19558.00;5019157;28;20056;-68
2021/09/04 06:06:41;;;;;;;3.93;2.00;;;;;;;15.16;100.00;-19560.75;5019843;28;20032;-68
2021/09/04 06:09:06;;;;;;;8.20;2.03;;;;;;;15.19;100.00;-19561.53;5019440;28;20243;-68
2021/09/04 06:11:32;;;;;;;6.50;2.53;;;;;;;15.18;100.00;-19561.28;5019515;28;20550;-68
2021/09/04 06:13:59;;;;;;;5.63;2.00;;;;;;;15.23;100.00;-19562.44;5019300;28;20025;-68
2021/09/04 06:16:25;;;;;;;4.80;2.17;;;;;;;15.43;100.00;-19567.69;5019633;28;20594;-67
2021/09/04 06:18:51;;;;;;;6.97;2.37;;;;;;;15.53;100.00;-19570.16;5019063;28;20036;-68
2021/09/04 06:21:17;;;;;;;8.50;2.20;;;;;;;15.59;100.00;-19571.72;5019530;28;20029;-69
2021/09/04 06:23:42;;;;;;;9.43;2.53;;;;;;;15.65;100.00;-19573.31;5019290;28;20029;-68
2021/09/04 06:26:09;;;;;;;5.57;2.00;;;;;;;15.79;100.00;-19576.84;5019150;28;20029;-68
2021/09/04 06:28:34;;;;;;;5.60;2.00;;;;;;;15.90;100.00;-19579.59;5019178;28;20437;-68
2021/09/04 06:31:00;;;;;;;7.70;1.93;;;;;;;15.98;100.00;-19581.69;5019261;28;20103;-68
2021/09/04 06:33:26;;;;;;;5.30;2.17;;;;;;;16.03;100.00;-19582.97;5019214;28;20033;-68
2021/09/04 06:35:52;;;;;;;4.30;2.27;;;;;;;16.05;100.00;-19583.50;5019221;28;20040;-68
2021/09/04 06:38:17;;;;;;;4.73;2.10;;;;;;;16.18;100.00;-19586.91;5019323;28;20040;-68
2021/09/04 06:40:43;;;;;;;6.30;1.97;;;;;;;16.36;100.00;-19591.47;5018974;28;20056;-68
2021/09/04 06:43:09;;;;;;;7.40;2.27;;;;;;;16.61;100.00;-19597.88;5019544;28;20046;-68
2021/09/04 06:45:37;;;;;;;7.20;2.07;;;;;;;16.67;100.00;-19599.44;5022847;28;20040;-68
2021/09/04 06:48:03;;;;;;;6.93;1.80;;;;;;;16.58;100.00;-19597.09;5023225;28;20270;-68
2021/09/04 06:50:29;;;;;;;4.93;1.77;;;;;;;16.53;100.00;-19595.78;5022710;28;20025;-68
2021/09/04 06:52:54;;;;;;;13.60;2.07;;;;;;;16.53;100.00;-19595.78;5022908;28;20033;-68
2021/09/04 06:55:20;;;;;;;3.10;1.30;;;;;;;16.46;100.00;-19594.09;5022513;28;20284;-68
2021/09/04 06:57:45;;;;;;;6.67;1.57;;;;;;;16.52;100.00;-19595.66;5022713;28;20325;-67
2021/09/04 07:00:11;;;;;;;5.03;1.50;;;;;;;16.61;100.00;-19597.88;5022890;28;20160;-67
2021/09/04 07:02:37;;;;;;;4.23;1.23;;;;;;;16.92;100.00;-19605.84;5022362;28;20075;-67
2021/09/04 07:05:04;;;;;;;5.97;1.60;;;;;;;17.21;100.00;-19613.28;5022409;28;20421;-67
2021/09/04 07:07:29;;;;;;;6.17;1.70;;;;;;;17.19;100.00;-19612.78;5022934;28;20025;-67
2021/09/04 07:09:55;;;;;;;6.17;1.40;;;;;;;17.09;100.00;-19610.16;5022542;28;20040;-67
2021/09/04 07:12:20;;;;;;;8.33;1.67;;;;;;;16.84;100.00;-19603.91;5022823;28;20307;-67
2021/09/04 07:14:46;;;;;;;3.93;1.43;;;;;;;16.81;100.00;-19602.97;5022151;28;20037;-67
2021/09/04 07:17:12;;;;;;;5.30;1.40;;;;;;;17.03;100.00;-19608.59;5022595;28;20049;-67
2021/09/04 07:19:37;;;;;;;4.13;1.40;;;;;;;17.21;100.00;-19613.28;5022146;28;20033;-67
2021/09/04 07:22:03;;;;;;;7.10;1.33;;;;;;;17.32;100.00;-19616.16;5022370;28;20025;-67
2021/09/04 07:24:29;;;;;;;3.40;1.20;;;;;;;17.35;100.00;-19616.94;5022233;28;20098;-67
2021/09/04 07:26:54;;;;;;;6.27;1.27;;;;;;;17.54;100.00;-19621.91;5022596;28;20033;-67
2021/09/04 07:29:20;;;;;;;2.83;1.10;;;;;;;17.58;100.00;-19622.94;5022231;28;20556;-67
2021/09/04 07:31:46;;;;;;;2.83;1.40;;;;;;;17.68;100.00;-19625.28;5022403;28;20025;-67
2021/09/04 07:34:12;;;;;;;5.77;1.47;;;;;;;17.46;100.00;-19619.81;5021769;28;20029;-67
2021/09/04 07:36:37;;;;;;;4.77;1.30;;;;;;;17.68;100.00;-19625.44;5022160;28;20230;-67
2021/09/04 07:39:03;;;;;;;3.40;1.30;;;;;;;17.98;100.00;-19633.13;5021985;28;20225;-67
2021/09/04 07:41:30;;;;;;;3.73;1.40;;;;;;;17.95;100.00;-19632.22;5022391;28;20475;-67
2021/09/04 07:43:56;;;;;;;3.90;1.13;;;;;;;17.74;100.00;-19627.00;5021691;28;20258;-67
2021/09/04 07:46:21;;;;;;;6.33;1.40;;;;;;;17.55;100.00;-19622.16;5022040;28;20057;-67
2021/09/04 07:48:47;;;;;;;5.03;1.40;;;;;;;17.63;100.00;-19624.00;5021808;28;20025;-68
2021/09/04 07:51:12;;;;;;;4.40;1.40;;;;;;;17.51;100.00;-19621.13;5021881;28;20056;-68
2021/09/04 07:53:38;;;;;;;4.03;1.40;;;;;;;17.63;100.00;-19624.00;5021817;28;20055;-68
2021/09/04 07:56:04;;;;;;;3.33;1.60;;;;;;;17.69;100.00;-19625.56;5020646;28;20269;-68
2021/09/04 07:58:31;;;;;;;3.40;1.17;;;;;;;17.50;100.00;-19620.72;5021886;28;20029;-68
2021/09/04 08:00:57;;;;;;;4.47;1.73;;;;;;;17.65;100.00;-19624.50;5021707;28;20041;-68
2021/09/04 08:03:23;;;;;;;4.35;1.50;;;;;;;17.74;100.00;-19626.88;5021468;28;20080;-68
2021/09/04 08:05:48;;;;;;;4.97;1.30;;;;;;;17.76;100.00;-19627.38;5021770;28;20025;-68
2021/09/04 08:08:14;;;;;;;3.67;1.23;;;;;;;18.07;100.00;-19635.47;5021700;28;20185;-68
2021/09/04 08:10:43;;;;;;;4.05;1.20;;;;;;;18.35;100.00;-19642.50;5021162;28;20021;-68
2021/09/04 08:13:08;;;;;;;3.13;1.48;;;;;;;18.49;100.00;-19646.16;5021573;28;20041;-69
2021/09/04 08:15:34;;;;;;;4.18;1.50;;;;;;;19.21;100.00;-19664.53;5021322;28;20563;-68
2021/09/04 08:17:59;;;;;;;3.92;1.40;;;;;;;19.13;100.00;-19662.56;5021588;28;20589;-68
2021/09/04 08:20:25;;;;;;;4.97;1.40;;;;;;;18.82;100.00;-19654.63;5021286;28;20148;-68
2021/09/04 08:22:51;;;;;;;2.83;1.10;;;;;;;19.29;100.00;-19666.75;5021365;28;20029;-68
2021/09/04 08:25:16;;;;;;;7.00;1.48;;;;;;;19.11;100.00;-19662.06;5021428;28;20370;-68
2021/09/04 08:27:42;;;;;;;3.30;1.20;;;;;;;18.95;100.00;-19658.03;5021370;28;20362;-68
2021/09/04 08:30:08;;;;;;;2.72;1.17;;;;;;;18.93;100.00;-19657.38;5021104;28;20041;-68
2021/09/04 08:32:33;;;;;;;3.67;1.23;;;;;;;19.09;100.00;-19661.53;5021198;28;20108;-69
2021/09/04 08:34:59;;;;;;;3.65;1.42;;;;;;;19.23;100.00;-19665.19;5020988;28;20401;-68
2021/09/04 08:37:24;;;;;;;3.88;1.20;;;;;;;19.56;100.00;-19673.66;5021410;28;20032;-69
2021/09/04 08:39:50;;;;;;;6.38;1.33;;;;;;;21.64;97.63;-19726.78;5022190;28;20025;-72
2021/09/04 08:42:16;;;;;;;7.28;1.20;;;;;;;21.71;97.65;-19728.34;5023592;28;20033;-72
2021/09/04 08:44:41;;;;;;;4.78;1.17;;;;;;;21.63;86.74;-19726.53;5021513;28;20114;-68
2021/09/04 08:47:07;;;;;;;4.68;1.17;;;;;;;20.63;98.00;-19700.97;5021527;28;20029;-69
2021/09/04 08:49:37;;;;;;;4.35;1.30;;;;;;;20.06;100.00;-19686.25;5020988;28;20026;-69
2021/09/04 08:52:04;;;;;;;3.63;1.00;;;;;;;19.99;100.00;-19684.44;5020883;28;20033;-68
2021/09/04 08:54:30;;;;;;;3.22;1.33;;;;;;;19.85;100.00;-19680.94;5020801;28;20344;-68
2021/09/04 08:56:56;;;;;;;3.55;1.20;;;;;;;19.94;100.00;-19683.13;5020693;28;20043;-68
2021/09/04 08:59:21;;;;;;;9.10;1.75;;;;;;;20.57;100.00;-19699.25;5020291;28;20029;-69
2021/09/04 09:01:47;;;;;;;8.02;1.58;;;;;;;22.08;88.93;-19737.97;5023833;28;20466;-73
2021/09/04 09:04:17;;;;;;;3.75;1.30;;;;;;;21.79;85.48;-19730.44;5022313;28;20526;-71
2021/09/04 09:06:44;;;;;;;4.35;1.58;;;;;;;21.95;86.89;-19734.59;5021127;28;20567;-70
2021/09/04 09:09:21;;;;;;;7.57;1.13;;;;;;;20.16;94.63;-19689.00;5020504;28;20449;-69
2021/09/04 09:11:54;;;;;;;2.40;1.15;;;;;;;20.24;100.00;-19690.94;5020577;28;20029;-69
2021/09/04 09:14:21;;;;;;;3.67;1.30;;;;;;;19.15;100.00;-19663.09;5019705;28;20241;-69
2021/09/04 09:16:58;;;;;;;12.45;2.20;;;;;;;19.63;100.00;-19675.22;5020379;28;20029;-68
2021/09/04 09:19:54;;;;;;;6.05;1.60;;;;;;;19.83;100.00;-19680.53;5020042;28;20017;-69
2021/09/04 09:22:20;;;;;;;4.05;1.67;;;;;;;20.00;100.00;-19684.72;4958507;28;20127;-70
2021/09/04 09:24:45;;;;;;;4.35;1.38;;;;;;;19.82;100.00;-19680.28;4958353;28;20065;-69
2021/09/04 09:27:14;;;;;;;4.15;1.63;;;;;;;21.14;99.18;-19713.94;4958606;28;20755;-70
2021/09/04 09:29:47;;;;;;;7.65;2.10;;;;;;;23.67;72.98;-19778.38;4960490;28;20369;-74
2021/09/04 09:32:13;;;;;;;3.08;1.50;;;;;;;25.21;73.75;-19817.41;4959789;28;20554;-75
2021/09/04 09:34:44;;;;;;;5.68;1.52;;;;;;;26.66;55.22;-19854.31;4959690;28;20027;-74
2021/09/04 09:37:11;;;;;;;3.17;1.17;;;;;;;25.03;57.84;-19813.03;4944206;28;20518;-74
2021/09/04 09:39:40;;;;;;;3.80;1.20;;;;;;;24.02;60.72;-19787.19;4959568;28;20690;-70
2021/09/04 09:42:07;;;;;;;6.38;1.65;;;;;;;22.27;76.21;-19742.75;4958514;28;20034;-69
2021/09/04 09:44:34;;;;;;;7.20;1.38;;;;;;;21.28;78.84;-19717.44;4957916;28;20040;-69
2021/09/04 09:47:05;;;;;;;4.57;1.20;;;;;;;22.05;77.73;-19737.19;4957977;28;20089;-69
2021/09/04 09:49:50;;;;;;;5.45;1.55;;;;;;;23.66;67.63;-19778.13;4958165;28;20034;-70
2021/09/04 09:52:17;;;;;;;4.47;1.45;;;;;;;23.07;67.78;-19763.09;4958098;28;20718;-69
2021/09/04 09:54:47;;;;;;;5.38;1.33;;;;;;;23.67;66.20;-19778.50;4957736;28;20034;-70
2021/09/04 09:57:14;;;;;;;5.18;1.50;;;;;;;23.43;68.65;-19772.16;4958139;28;20030;-69
2021/09/04 09:59:46;;;;;;;3.10;1.17;;;;;;;22.71;69.25;-19754.03;5002648;28;20280;-69
2021/09/04 10:02:16;;;;;;;5.63;1.35;;;;;;;24.49;60.69;-19799.34;5019609;28;20033;-69
2021/09/04 10:04:46;;;;;;;4.75;1.70;;;;;;;24.86;57.69;-19808.63;5019125;28;20276;-68
2021/09/04 10:07:11;;;;;;;4.88;1.42;;;;;;;23.86;60.63;-19783.28;5019694;28;20021;-68
2021/09/04 10:09:39;;;;;;;6.30;1.80;;;;;;;23.95;61.43;-19785.63;5020034;28;20098;-68
2021/09/04 10:12:05;;;;;;;7.68;1.80;;;;;;;23.39;61.03;-19771.38;5019894;28;20017;-68
2021/09/04 10:14:31;;;;;;;3.63;1.30;;;;;;;22.73;68.51;-19754.53;5019638;28;20045;-68
2021/09/04 10:16:59;;;;;;;4.15;1.50;;;;;;;22.02;70.68;-19736.41;5019678;28;20302;-69
2021/09/04 10:19:30;;;;;;;3.67;1.52;;;;;;;22.39;79.59;-19745.72;5018602;28;20398;-69
2021/09/04 10:22:01;;;;;;;5.32;1.60;;;;;;;22.61;68.54;-19751.44;5019452;28;20026;-68
2021/09/04 10:24:49;;;;;;;4.70;1.33;;;;;;;22.38;76.86;-19745.47;5019318;28;20021;-68
2021/09/04 10:27:32;;;;;;;7.75;1.40;;;;;;;22.03;82.19;-19736.66;5019615;28;20536;-68
2021/09/04 10:29:58;;;;;;;8.13;1.73;;;;;;;22.40;77.73;-19746.00;5019103;28;20026;-68
2021/09/04 10:32:24;;;;;;;3.53;1.40;;;;;;;23.15;66.31;-19765.19;5019340;28;20064;-67
2021/09/04 10:35:05;;;;;;;4.43;1.45;;;;;;;23.84;67.12;-19782.78;5018226;28;20069;-68
2021/09/04 10:37:31;;;;;;;3.20;1.55;;;;;;;25.19;57.05;-19817.03;5019383;28;20031;-67
2021/09/04 10:40:10;;;;;;;4.15;1.40;;;;;;;23.94;64.50;-19785.38;5018842;28;20025;-69
2021/09/04 10:42:44;;;;;;;4.90;1.95;;;;;;;24.33;58.98;-19795.19;5019174;28;20053;-68
2021/09/04 10:45:16;;;;;;;5.63;1.85;;;;;;;24.55;57.45;-19800.88;5019020;28;20018;-67
2021/09/04 10:48:00;;;;;;;5.05;1.88;;;;;;;24.04;60.19;-19787.69;5019237;28;20028;-67
2021/09/04 10:50:33;;;;;;;4.38;1.70;;;;;;;22.87;63.90;-19757.91;5018706;28;20021;-67
2021/09/04 10:53:07;;;;;;;7.55;3.03;;;;;;;22.94;67.91;-19759.75;5019037;28;20021;-67
2021/09/04 10:55:41;;;;;;;6.70;1.85;;;;;;;22.39;66.14;-19745.72;5019054;28;20044;-67
2021/09/04 10:58:15;;;;;;;8.15;2.35;;;;;;;22.54;70.53;-19749.63;5019081;28;20133;-67
2021/09/04 11:00:48;;;;;;;4.78;2.00;;;;;;;22.18;78.73;-19740.56;5018796;28;20040;-68
2021/09/04 11:03:18;;;;;;;8.10;2.10;;;;;;;22.66;76.54;-19752.75;5019116;28;20033;-68
2021/09/04 11:05:52;;;;;;;9.50;2.20;;;;;;;22.28;76.92;-19742.88;5018629;28;20041;-68
2021/09/04 11:08:38;;;;;;;6.05;2.30;;;;;;;21.68;76.99;-19727.56;5019003;28;20049;-68
2021/09/04 11:11:36;;;;;;;5.25;2.55;;;;;;;21.21;77.20;-19715.63;5018516;28;20029;-68
2021/09/04 11:14:21;;;;;;;5.82;2.63;;;;;;;20.92;85.92;-19708.34;5017801;28;20123;-67
2021/09/04 11:16:54;;;;;;;6.97;2.20;;;;;;;21.42;78.74;-19720.97;5019108;28;20022;-67
2021/09/04 11:19:27;;;;;;;6.28;2.17;;;;;;;20.87;81.33;-19707.06;5018757;28;20280;-67